CA63 weather

John Muir Walnut Creek Medical Center Heliport
Walnut Creek, California, United States

Public forecast

Using degrees Fahrenheit for public forecast. Weather courtesy of forecast.io.

METAR (pilot weather report)

Closest report is Buchanan Field, 4.7 nm (8.7 km) N. Retrieved 2019/06/17 18:53 UTC (1 hour ago):

KCCR 171853Z 34009KT 10SM CLR 26/13 A2983 RMK AO2 SLP086 T02610133

TAF (pilot weather forecast)

Forecast is more than 12 hours old.

Closest forecast is Buchanan Field, 4.7 nm (8.7 km) N. Retrieved 2016/02/08 00:21 UTC (3 years ago):

TAF KCCR 082320Z 0900/0924 06006KT P6SM SKC FM090600 VRB03KT P6SM SKC FM091800 04009KT P6SM SKC